Time;durP1;ratioP1;P1;durP2;ratioP2;P2;SDS_P1;SDS_P2;PMS_P1;PMS_P2;Temp;Humidity;BMP_temperature;BMP_pressure;BME280_temperature;BME280_humidity;BME280_pressure;Samples;Min_cycle;Max_cycle;Signal;HPM_P1;HPM_P2
2022/02/24 00:00:33;;;;;;;0.00;0.00;;;7.30;99.90;;;;;;5034644;28;20023;-74
2022/02/24 00:02:59;;;;;;;1.10;1.00;;;7.30;99.90;;;;;;5034466;28;20385;-75
2022/02/24 00:05:25;;;;;;;0.35;0.35;;;7.30;99.90;;;;;;5034640;28;20047;-74
2022/02/24 00:07:52;;;;;;;2.63;0.80;;;7.30;99.90;;;;;;5034827;28;20041;-74
2022/02/24 00:10:20;;;;;;;0.10;0.10;;;7.30;99.90;;;;;;5034332;28;20026;-75
2022/02/24 00:12:46;;;;;;;0.10;0.10;;;7.30;99.90;;;;;;5034283;28;20033;-74
2022/02/24 00:15:12;;;;;;;0.10;0.10;;;7.30;99.90;;;;;;5034639;28;20056;-74
2022/02/24 00:17:38;;;;;;;2.47;0.55;;;7.30;99.90;;;;;;5034177;28;20057;-74
2022/02/24 00:20:08;;;;;;;0.52;0.52;;;7.20;99.90;;;;;;5034463;28;20032;-74
2022/02/24 00:22:34;;;;;;;0.38;0.38;;;7.20;99.90;;;;;;5034578;28;20112;-75
2022/02/24 00:25:01;;;;;;;0.35;0.35;;;7.20;99.90;;;;;;5034384;28;20025;-74
2022/02/24 00:27:27;;;;;;;0.60;0.50;;;7.20;99.90;;;;;;5034418;28;20055;-74
2022/02/24 00:29:53;;;;;;;0.05;0.05;;;7.20;99.90;;;;;;5034031;28;20049;-74
2022/02/24 00:32:18;;;;;;;0.20;0.20;;;7.20;99.90;;;;;;5034175;28;20022;-74
2022/02/24 00:34:44;;;;;;;3.40;0.93;;;7.20;99.90;;;;;;5034250;28;20032;-74
2022/02/24 00:37:10;;;;;;;0.77;0.77;;;7.20;99.90;;;;;;5034190;28;20029;-74
2022/02/24 00:39:35;;;;;;;3.35;1.67;;;7.20;99.90;;;;;;5033768;28;20049;-74
2022/02/24 00:42:01;;;;;;;0.43;0.43;;;7.30;99.90;;;;;;5034322;28;20183;-74
2022/02/24 00:44:27;;;;;;;0.10;0.10;;;7.20;99.90;;;;;;5033966;28;20057;-74
2022/02/24 00:46:53;;;;;;;5.85;1.85;;;7.30;99.90;;;;;;5034220;28;20112;-74
2022/02/24 00:49:20;;;;;;;0.00;0.00;;;7.20;99.90;;;;;;5033896;28;20112;-75
2022/02/24 00:51:46;;;;;;;0.52;0.52;;;7.20;99.90;;;;;;5033722;28;20021;-75
2022/02/24 00:54:13;;;;;;;0.28;0.28;;;7.20;99.90;;;;;;5033328;28;20396;-74
2022/02/24 00:56:39;;;;;;;0.00;0.00;;;7.20;99.90;;;;;;5033797;28;20032;-74
2022/02/24 00:59:05;;;;;;;0.00;0.00;;;7.20;99.90;;;;;;5032967;28;20104;-74
2022/02/24 01:01:31;;;;;;;0.20;0.20;;;7.20;99.90;;;;;;5033548;28;20079;-74
2022/02/24 01:03:56;;;;;;;1.05;0.50;;;7.20;99.90;;;;;;5033142;28;20473;-74
2022/02/24 01:06:22;;;;;;;1.00;0.95;;;7.10;99.90;;;;;;5032998;28;20033;-74
2022/02/24 01:08:48;;;;;;;0.55;0.45;;;7.10;99.90;;;;;;5033053;28;20036;-74
2022/02/24 01:11:13;;;;;;;0.10;0.10;;;7.10;99.90;;;;;;5033646;28;20039;-74
2022/02/24 01:13:39;;;;;;;0.60;0.60;;;7.10;99.90;;;;;;5032885;28;20026;-74
2022/02/24 01:16:05;;;;;;;0.60;0.45;;;7.10;99.90;;;;;;5033214;28;20021;-74
2022/02/24 01:18:30;;;;;;;0.68;0.57;;;7.10;99.90;;;;;;5033077;28;20022;-74
2022/02/24 01:20:56;;;;;;;0.10;0.10;;;7.10;99.90;;;;;;5035172;28;20095;-74
2022/02/24 01:23:23;;;;;;;0.10;0.10;;;7.10;99.90;;;;;;5032376;28;20033;-74
2022/02/24 01:25:49;;;;;;;0.00;0.00;;;7.00;99.90;;;;;;5033706;28;20396;-74
2022/02/24 01:28:14;;;;;;;0.30;0.30;;;7.00;99.90;;;;;;5033489;28;20025;-74
2022/02/24 01:30:40;;;;;;;0.03;0.03;;;7.00;99.90;;;;;;5033565;28;20033;-75
2022/02/24 01:33:06;;;;;;;1.23;1.17;;;7.00;99.90;;;;;;5033157;28;20028;-74
2022/02/24 01:35:32;;;;;;;0.20;0.20;;;7.00;99.90;;;;;;5033154;28;20056;-74
2022/02/24 01:37:58;;;;;;;0.00;0.00;;;7.00;99.90;;;;;;5033223;28;20469;-74
2022/02/24 01:40:23;;;;;;;5.28;2.55;;;7.00;99.90;;;;;;5032220;28;20035;-74
2022/02/24 01:42:49;;;;;;;0.20;0.20;;;7.00;99.90;;;;;;5033486;28;20105;-74
2022/02/24 01:45:15;;;;;;;0.38;0.38;;;7.00;99.90;;;;;;5033036;28;20133;-74
2022/02/24 01:47:41;;;;;;;0.43;0.43;;;6.90;99.90;;;;;;5032982;28;20033;-74
2022/02/24 01:50:09;;;;;;;0.20;0.20;;;6.90;99.90;;;;;;5032386;28;20037;-74
2022/02/24 01:52:38;;;;;;;0.70;0.70;;;6.90;99.90;;;;;;5032952;28;20135;-75
2022/02/24 01:55:04;;;;;;;9.23;1.75;;;6.90;99.90;;;;;;5032502;28;20072;-74
2022/02/24 01:57:30;;;;;;;0.30;0.30;;;6.90;99.90;;;;;;5033141;28;20100;-74
2022/02/24 01:59:56;;;;;;;14.98;1.13;;;6.80;99.90;;;;;;5029505;28;20108;-74
2022/02/24 02:02:22;;;;;;;0.55;0.38;;;6.90;99.90;;;;;;5012822;28;20080;-75
2022/02/24 02:04:48;;;;;;;0.10;0.10;;;6.80;99.90;;;;;;5012700;28;20030;-74
2022/02/24 02:07:14;;;;;;;1.15;1.05;;;6.90;99.90;;;;;;5013208;28;20030;-75
2022/02/24 02:09:40;;;;;;;1.00;0.95;;;6.80;99.90;;;;;;5014521;28;20091;-74
2022/02/24 02:12:06;;;;;;;0.20;0.20;;;6.80;99.90;;;;;;5015955;28;20022;-74
2022/02/24 02:14:31;;;;;;;1.02;0.98;;;6.90;99.90;;;;;;5012806;28;20030;-74
2022/02/24 02:16:58;;;;;;;0.30;0.30;;;6.90;99.90;;;;;;5012164;28;20093;-74
2022/02/24 02:19:25;;;;;;;0.65;0.65;;;6.90;99.90;;;;;;5012639;28;20079;-74
2022/02/24 02:21:50;;;;;;;0.43;0.43;;;6.90;99.90;;;;;;5013185;28;20489;-74
2022/02/24 02:24:16;;;;;;;0.38;0.38;;;6.90;99.90;;;;;;5012681;28;20029;-74
2022/02/24 02:26:42;;;;;;;0.10;0.10;;;6.90;99.90;;;;;;5013301;28;20041;-74
2022/02/24 02:29:12;;;;;;;0.20;0.20;;;6.80;99.90;;;;;;5013287;28;20500;-74
2022/02/24 02:31:39;;;;;;;0.00;0.00;;;6.80;99.90;;;;;;5013115;28;20018;-74
2022/02/24 02:34:12;;;;;;;0.20;0.20;;;6.90;99.90;;;;;;5013614;28;20532;-74
2022/02/24 02:36:39;;;;;;;0.28;0.28;;;6.90;99.90;;;;;;5020729;28;20024;-74
2022/02/24 02:39:10;;;;;;;1.10;0.85;;;6.90;99.90;;;;;;5036233;28;20443;-74
2022/02/24 02:41:37;;;;;;;0.65;0.65;;;6.90;99.90;;;;;;5036578;28;20020;-74
2022/02/24 02:44:03;;;;;;;1.08;0.45;;;6.90;99.90;;;;;;5036486;28;20057;-74
2022/02/24 02:46:29;;;;;;;0.10;0.10;;;6.90;99.90;;;;;;5036556;28;20091;-74
2022/02/24 02:48:55;;;;;;;0.10;0.10;;;6.90;99.90;;;;;;5035697;28;20480;-74
2022/02/24 02:51:20;;;;;;;0.20;0.20;;;6.90;99.90;;;;;;5035612;28;20036;-74
2022/02/24 02:53:46;;;;;;;0.65;0.65;;;6.90;99.90;;;;;;5035696;28;20022;-74
2022/02/24 02:56:13;;;;;;;0.25;0.25;;;6.80;99.90;;;;;;5036415;28;20029;-74
2022/02/24 02:58:39;;;;;;;2.92;0.80;;;6.80;99.90;;;;;;5035957;28;20036;-75
2022/02/24 03:01:05;;;;;;;0.00;0.00;;;6.80;99.90;;;;;;5023227;28;20022;-74
2022/02/24 03:03:30;;;;;;;0.00;0.00;;;6.80;99.90;;;;;;5016195;28;20068;-74
2022/02/24 03:05:56;;;;;;;0.10;0.10;;;6.70;99.90;;;;;;5030098;28;20058;-74
2022/02/24 03:08:22;;;;;;;0.32;0.32;;;6.70;99.90;;;;;;5019058;28;20038;-74
2022/02/24 03:10:48;;;;;;;0.10;0.10;;;6.70;99.90;;;;;;5016183;28;20022;-74
2022/02/24 03:13:14;;;;;;;3.00;1.65;;;6.70;99.90;;;;;;5016040;28;20037;-74
2022/02/24 03:15:40;;;;;;;0.30;0.30;;;6.70;99.90;;;;;;5015832;28;20033;-74
2022/02/24 03:18:06;;;;;;;0.22;0.22;;;6.60;99.90;;;;;;5015642;28;20041;-74
2022/02/24 03:20:32;;;;;;;0.00;0.00;;;6.70;99.90;;;;;;5016097;28;20034;-74
2022/02/24 03:23:07;;;;;;;0.15;0.15;;;6.70;99.90;;;;;;5015345;28;20084;-74
2022/02/24 03:25:32;;;;;;;0.30;0.30;;;6.70;99.90;;;;;;5016208;28;20394;-74
2022/02/24 03:27:59;;;;;;;0.00;0.00;;;6.60;99.90;;;;;;5015519;28;20065;-74
2022/02/24 03:30:26;;;;;;;0.00;0.00;;;6.60;99.90;;;;;;5015738;28;20084;-74
2022/02/24 03:32:51;;;;;;;1.98;1.25;;;6.50;99.90;;;;;;5015822;28;20409;-74
2022/02/24 03:35:19;;;;;;;0.10;0.10;;;6.50;99.90;;;;;;5015541;28;20026;-74
2022/02/24 03:37:45;;;;;;;0.38;0.38;;;6.50;99.90;;;;;;5028791;28;20018;-74
2022/02/24 03:40:13;;;;;;;0.13;0.13;;;6.40;99.90;;;;;;5035070;28;20033;-74
2022/02/24 03:42:39;;;;;;;0.20;0.20;;;6.40;99.90;;;;;;5033882;28;20025;-73
2022/02/24 03:45:06;;;;;;;0.08;0.08;;;6.40;99.90;;;;;;5034872;28;20408;-75
2022/02/24 03:47:32;;;;;;;0.10;0.10;;;6.40;99.90;;;;;;5040083;28;20033;-74
2022/02/24 03:50:00;;;;;;;0.88;0.88;;;6.40;99.90;;;;;;5034593;28;20054;-74
2022/02/24 03:52:25;;;;;;;0.25;0.25;;;6.40;99.90;;;;;;5035010;28;20485;-75
2022/02/24 03:54:51;;;;;;;0.43;0.43;;;6.40;99.90;;;;;;5034360;28;20077;-74
2022/02/24 03:57:18;;;;;;;0.00;0.00;;;6.40;99.90;;;;;;5034906;28;20018;-74
2022/02/24 03:59:44;;;;;;;1.17;0.55;;;6.30;99.90;;;;;;5031753;28;20033;-74
2022/02/24 04:02:11;;;;;;;0.63;0.63;;;6.30;99.90;;;;;;5015089;28;20025;-74
2022/02/24 04:04:37;;;;;;;2.83;1.80;;;6.30;99.90;;;;;;5015222;28;20030;-74
2022/02/24 04:07:04;;;;;;;0.00;0.00;;;6.30;99.90;;;;;;5014456;28;20026;-74
2022/02/24 04:09:30;;;;;;;0.57;0.43;;;6.30;99.90;;;;;;5015028;28;20029;-74
2022/02/24 04:11:56;;;;;;;0.30;0.30;;;6.20;99.90;;;;;;5014248;28;20017;-74
2022/02/24 04:14:22;;;;;;;0.00;0.00;;;6.10;99.90;;;;;;5014873;28;20571;-75
2022/02/24 04:16:49;;;;;;;0.47;0.47;;;6.10;99.90;;;;;;5014087;28;20018;-74
2022/02/24 04:19:14;;;;;;;1.17;1.00;;;6.10;99.90;;;;;;5014567;28;20030;-74
2022/02/24 04:21:40;;;;;;;0.05;0.05;;;6.10;99.90;;;;;;5014911;28;20156;-75
2022/02/24 04:24:06;;;;;;;0.32;0.32;;;6.10;99.90;;;;;;5014653;28;20041;-74
2022/02/24 04:26:33;;;;;;;0.17;0.17;;;6.10;99.90;;;;;;5014603;28;20038;-74
2022/02/24 04:28:59;;;;;;;0.40;0.40;;;6.10;99.90;;;;;;5014733;28;20057;-74
2022/02/24 04:31:25;;;;;;;0.00;0.00;;;6.20;99.90;;;;;;5013935;28;20476;-74
2022/02/24 04:33:51;;;;;;;0.00;0.00;;;6.20;99.90;;;;;;5014633;28;20084;-74
2022/02/24 04:36:17;;;;;;;1.10;0.15;;;6.10;99.90;;;;;;5015890;28;20500;-74
2022/02/24 04:38:42;;;;;;;0.55;0.55;;;6.10;99.90;;;;;;5034179;28;20025;-74
2022/02/24 04:41:08;;;;;;;0.00;0.00;;;6.10;99.90;;;;;;5034391;28;20088;-74
2022/02/24 04:43:34;;;;;;;0.52;0.52;;;6.00;99.90;;;;;;5034080;28;20054;-75
2022/02/24 04:46:00;;;;;;;0.00;0.00;;;6.00;99.90;;;;;;5034292;28;20433;-75
2022/02/24 04:48:26;;;;;;;1.40;0.40;;;6.00;99.90;;;;;;5033207;28;20064;-74
2022/02/24 04:50:53;;;;;;;2.20;0.38;;;6.10;99.90;;;;;;5033908;28;20033;-74
2022/02/24 04:53:19;;;;;;;0.20;0.20;;;6.10;99.90;;;;;;5032830;28;20100;-74
2022/02/24 04:55:44;;;;;;;0.10;0.10;;;6.10;99.90;;;;;;5032701;28;20520;-74
2022/02/24 04:58:10;;;;;;;0.38;0.38;;;6.10;99.90;;;;;;5034041;28;20443;-74
2022/02/24 05:00:37;;;;;;;0.10;0.10;;;6.00;99.90;;;;;;5033603;28;20010;-74
2022/02/24 05:03:02;;;;;;;0.60;0.60;;;6.00;99.90;;;;;;5033657;28;20030;-74
2022/02/24 05:05:29;;;;;;;1.48;1.38;;;5.90;99.90;;;;;;5033917;28;20084;-74
2022/02/24 05:07:55;;;;;;;0.25;0.25;;;5.80;99.90;;;;;;5033052;28;20631;-74
2022/02/24 05:10:21;;;;;;;1.88;1.67;;;5.80;99.90;;;;;;5033371;28;20404;-74
2022/02/24 05:12:47;;;;;;;2.15;1.42;;;5.90;99.90;;;;;;5033334;28;20025;-75
2022/02/24 05:15:13;;;;;;;0.20;0.15;;;6.00;99.90;;;;;;5033495;28;20025;-74
2022/02/24 05:17:40;;;;;;;0.30;0.30;;;6.00;99.90;;;;;;5033106;28;20397;-74
2022/02/24 05:20:08;;;;;;;3.03;0.88;;;6.00;99.90;;;;;;5033189;28;20067;-74
2022/02/24 05:22:37;;;;;;;1.77;1.67;;;5.90;99.90;;;;;;5033351;28;20028;-75
2022/02/24 05:25:03;;;;;;;5.82;2.47;;;5.90;99.90;;;;;;5033295;28;20029;-74
2022/02/24 05:27:29;;;;;;;0.68;0.68;;;5.90;99.90;;;;;;5032607;28;20040;-74
2022/02/24 05:29:55;;;;;;;8.05;0.73;;;6.00;99.90;;;;;;5033142;28;20543;-74
2022/02/24 05:32:21;;;;;;;1.92;1.45;;;5.90;99.90;;;;;;5033039;28;20026;-74
2022/02/24 05:34:46;;;;;;;0.25;0.25;;;5.90;99.90;;;;;;5033352;28;20032;-74
2022/02/24 05:37:12;;;;;;;0.73;0.73;;;5.80;99.90;;;;;;5030975;28;20029;-74
2022/02/24 05:39:37;;;;;;;6.90;1.17;;;5.80;99.90;;;;;;5038406;28;20017;-74
2022/02/24 05:42:03;;;;;;;0.43;0.43;;;5.80;99.90;;;;;;5033205;28;20029;-73
2022/02/24 05:44:29;;;;;;;0.70;0.70;;;5.80;99.90;;;;;;5033081;28;20050;-74
2022/02/24 05:46:55;;;;;;;0.30;0.30;;;5.90;99.90;;;;;;5032955;28;20060;-74
2022/02/24 05:49:20;;;;;;;0.85;0.85;;;5.80;99.90;;;;;;5032770;28;20028;-74
2022/02/24 05:51:46;;;;;;;0.10;0.10;;;5.90;99.90;;;;;;5032309;28;20111;-74
2022/02/24 05:54:12;;;;;;;0.65;0.65;;;5.90;99.90;;;;;;5032338;28;20021;-75
2022/02/24 05:56:38;;;;;;;0.20;0.20;;;5.90;99.90;;;;;;5032526;28;20021;-74
2022/02/24 05:59:04;;;;;;;0.32;0.32;;;5.90;99.90;;;;;;5032351;28;20029;-74
2022/02/24 06:01:29;;;;;;;2.30;0.82;;;5.90;99.90;;;;;;5032706;28;20102;-74
2022/02/24 06:03:55;;;;;;;1.25;1.15;;;5.80;99.90;;;;;;5032126;28;20508;-74
2022/02/24 06:06:21;;;;;;;0.70;0.70;;;5.80;99.90;;;;;;5032718;28;20036;-74
2022/02/24 06:08:46;;;;;;;0.20;0.20;;;5.70;99.90;;;;;;5030852;28;20032;-74
2022/02/24 06:11:12;;;;;;;0.10;0.10;;;5.70;99.90;;;;;;5032900;28;20057;-74
2022/02/24 06:13:38;;;;;;;1.52;1.45;;;5.60;99.90;;;;;;5032600;28;20451;-74
2022/02/24 06:16:04;;;;;;;0.65;0.65;;;5.50;99.90;;;;;;5032412;28;20022;-74
2022/02/24 06:18:30;;;;;;;0.32;0.32;;;5.40;99.90;;;;;;5032257;28;20021;-74
2022/02/24 06:20:57;;;;;;;0.85;0.85;;;5.30;99.90;;;;;;5064544;28;20378;-74
2022/02/24 06:23:23;;;;;;;0.55;0.55;;;5.30;99.90;;;;;;5032257;28;20065;-74
2022/02/24 06:25:48;;;;;;;0.85;0.47;;;5.20;99.90;;;;;;5032847;28;20068;-74
2022/02/24 06:28:14;;;;;;;0.30;0.30;;;5.20;99.90;;;;;;5032501;28;20511;-74
2022/02/24 06:30:40;;;;;;;0.20;0.20;;;5.20;99.90;;;;;;5032413;28;20468;-74
2022/02/24 06:33:05;;;;;;;3.20;2.28;;;5.10;99.90;;;;;;5031838;28;20036;-73
2022/02/24 06:35:31;;;;;;;0.10;0.10;;;5.10;99.90;;;;;;5025066;28;20104;-73
2022/02/24 06:37:58;;;;;;;2.17;0.60;;;5.10;99.90;;;;;;5023080;28;20065;-77
2022/02/24 06:40:24;;;;;;;1.23;1.13;;;5.10;99.90;;;;;;5028831;28;20037;-77
2022/02/24 06:42:50;;;;;;;1.30;1.25;;;5.10;99.90;;;;;;5031610;28;20392;-77
2022/02/24 06:45:16;;;;;;;54.38;1.38;;;5.10;99.90;;;;;;5032149;28;20049;-77
2022/02/24 06:47:42;;;;;;;0.38;0.38;;;5.10;99.90;;;;;;5032506;28;20021;-74
2022/02/24 06:50:11;;;;;;;7.43;1.67;;;5.10;99.90;;;;;;5034751;28;20053;-74
2022/02/24 06:52:39;;;;;;;1.90;1.40;;;5.20;99.90;;;;;;5017938;28;20116;-74
2022/02/24 06:55:06;;;;;;;2.13;1.33;;;5.20;99.90;;;;;;5030523;28;20022;-75
2022/02/24 06:57:41;;;;;;;1.45;0.45;;;5.20;99.90;;;;;;5032293;28;20021;-74
2022/02/24 07:00:07;;;;;;;0.30;0.30;;;5.20;99.90;;;;;;5029347;28;20104;-74
2022/02/24 07:02:33;;;;;;;3.58;0.77;;;5.10;99.90;;;;;;5027276;28;20102;-74
2022/02/24 07:04:59;;;;;;;0.20;0.20;;;5.10;99.90;;;;;;5028009;28;20033;-74
2022/02/24 07:07:24;;;;;;;0.45;0.45;;;5.10;99.90;;;;;;5030115;28;20033;-74
2022/02/24 07:09:50;;;;;;;1.17;0.95;;;5.00;99.90;;;;;;5029332;28;20077;-74
2022/02/24 07:12:15;;;;;;;0.93;0.93;;;5.00;99.90;;;;;;5028801;28;20037;-74
2022/02/24 07:14:41;;;;;;;1.23;0.93;;;5.00;99.90;;;;;;5031344;28;20032;-74
2022/02/24 07:17:07;;;;;;;1.45;0.70;;;4.90;99.90;;;;;;5030109;28;20075;-74
2022/02/24 07:19:33;;;;;;;3.38;0.70;;;5.00;99.90;;;;;;5029769;28;20038;-74
2022/02/24 07:21:58;;;;;;;0.22;0.22;;;5.10;99.90;;;;;;5030119;28;20098;-74
2022/02/24 07:24:24;;;;;;;0.82;0.57;;;5.20;99.90;;;;;;5032591;28;20178;-73
2022/02/24 07:26:50;;;;;;;0.20;0.20;;;5.30;99.90;;;;;;5034531;28;20439;-74
2022/02/24 07:29:16;;;;;;;0.28;0.28;;;5.50;99.90;;;;;;5033037;28;20026;-74
2022/02/24 07:31:42;;;;;;;0.40;0.40;;;5.50;99.90;;;;;;5033303;28;20073;-74
2022/02/24 07:34:08;;;;;;;4.95;1.67;;;5.50;99.90;;;;;;5033386;28;20470;-74
2022/02/24 07:36:34;;;;;;;9.55;1.67;;;5.60;99.90;;;;;;5031563;28;20030;-74
2022/02/24 07:39:00;;;;;;;1.75;1.65;;;5.60;99.90;;;;;;5032490;28;20431;-74
2022/02/24 07:41:26;;;;;;;0.75;0.75;;;5.70;99.90;;;;;;5033646;28;20025;-74
2022/02/24 07:43:52;;;;;;;0.98;0.90;;;5.80;99.90;;;;;;5035291;28;20045;-74
2022/02/24 07:46:17;;;;;;;0.60;0.60;;;5.90;99.90;;;;;;5033296;28;20022;-73
2022/02/24 07:48:43;;;;;;;1.52;1.42;;;6.00;99.90;;;;;;5033308;28;20542;-72
2022/02/24 07:51:09;;;;;;;2.60;1.45;;;6.00;99.90;;;;;;5035745;28;20080;-73
2022/02/24 07:53:34;;;;;;;0.20;0.15;;;6.20;99.90;;;;;;5036535;28;20033;-73
2022/02/24 07:56:00;;;;;;;0.75;0.75;;;6.40;99.90;;;;;;5029832;28;20030;-74
2022/02/24 07:58:26;;;;;;;0.52;0.52;;;6.60;99.90;;;;;;5033683;28;20103;-73
2022/02/24 08:00:51;;;;;;;0.75;0.75;;;6.70;99.90;;;;;;5033680;28;20068;-74
2022/02/24 08:03:17;;;;;;;1.35;1.08;;;6.80;99.90;;;;;;5039493;28;20017;-74
2022/02/24 08:05:43;;;;;;;0.63;0.63;;;7.00;99.90;;;;;;5030906;28;20759;-73
2022/02/24 08:08:08;;;;;;;0.28;0.28;;;7.20;99.90;;;;;;5031623;28;20084;-74
2022/02/24 08:10:34;;;;;;;0.57;0.57;;;7.80;99.90;;;;;;5033744;28;20033;-73
2022/02/24 08:13:01;;;;;;;0.15;0.15;;;8.60;99.90;;;;;;5041381;28;20369;-74
2022/02/24 08:15:27;;;;;;;0.93;0.80;;;8.90;99.90;;;;;;5048657;28;20052;-73
2022/02/24 08:17:54;;;;;;;2.13;1.35;;;9.50;99.90;;;;;;5035652;28;20064;-74
2022/02/24 08:20:19;;;;;;;0.68;0.68;;;10.50;99.90;;;;;;5049642;28;20025;-75
2022/02/24 08:22:48;;;;;;;0.60;0.60;;;11.20;99.90;;;;;;5044122;28;20593;-74
2022/02/24 08:25:17;;;;;;;0.57;0.57;;;11.50;99.90;;;;;;5039396;28;20033;-73
2022/02/24 08:27:44;;;;;;;2.28;1.92;;;10.90;99.90;;;;;;5030483;28;20037;-74
2022/02/24 08:30:12;;;;;;;0.30;0.30;;;10.30;99.90;;;;;;5048297;28;20132;-75
2022/02/24 08:32:39;;;;;;;15.98;3.22;;;9.70;99.90;;;;;;5048022;28;20051;-76
2022/02/24 08:35:06;;;;;;;1.35;0.52;;;9.40;99.90;;;;;;5033199;28;20071;-73
2022/02/24 08:37:32;;;;;;;2.38;0.68;;;9.20;99.90;;;;;;5031714;28;20101;-76
2022/02/24 08:39:58;;;;;;;0.17;0.17;;;9.20;99.90;;;;;;5032465;28;20120;-73
2022/02/24 08:42:25;;;;;;;0.35;0.35;;;9.50;99.90;;;;;;5046918;28;20056;-74
2022/02/24 08:44:52;;;;;;;0.82;0.68;;;10.30;99.90;;;;;;5033189;28;20065;-75
2022/02/24 08:47:18;;;;;;;0.55;0.43;;;12.10;99.90;;;;;;5029909;28;20579;-73
2022/02/24 08:49:44;;;;;;;1.85;1.42;;;13.00;99.90;;;;;;5031488;28;20021;-74
2022/02/24 08:52:10;;;;;;;0.52;0.38;;;13.90;99.90;;;;;;5032498;28;20017;-74
2022/02/24 08:54:36;;;;;;;0.10;0.10;;;14.00;99.90;;;;;;5033946;28;20497;-73
2022/02/24 08:57:03;;;;;;;0.00;0.00;;;13.60;99.90;;;;;;5040823;28;20472;-75
2022/02/24 08:59:29;;;;;;;0.15;0.15;;;13.70;99.90;;;;;;5031748;28;20029;-74
2022/02/24 09:01:55;;;;;;;0.63;0.52;;;14.10;99.90;;;;;;5029925;28;20121;-74
2022/02/24 09:04:21;;;;;;;1.58;0.88;;;13.40;99.90;;;;;;5031717;28;20113;-74
2022/02/24 09:06:47;;;;;;;0.00;0.00;;;12.80;99.90;;;;;;5030507;28;20685;-74
2022/02/24 09:09:12;;;;;;;0.20;0.10;;;12.80;99.90;;;;;;5033228;28;20044;-73
2022/02/24 09:11:38;;;;;;;0.75;0.75;;;12.60;99.90;;;;;;5031722;28;20033;-74
2022/02/24 09:14:04;;;;;;;0.00;0.00;;;12.60;99.90;;;;;;5036765;28;20083;-74
2022/02/24 09:16:30;;;;;;;9.77;1.02;;;12.40;99.90;;;;;;5032502;28;20025;-76
2022/02/24 09:18:56;;;;;;;0.00;0.00;;;12.40;99.90;;;;;;5032097;28;20031;-74
2022/02/24 09:21:22;;;;;;;1.20;0.98;;;12.60;99.90;;;;;;5030181;28;20017;-74
2022/02/24 09:23:48;;;;;;;0.00;0.00;;;12.70;99.90;;;;;;5031304;28;20029;-74
2022/02/24 09:26:13;;;;;;;4.05;0.20;;;13.00;99.90;;;;;;5040308;28;20475;-73
2022/02/24 09:28:39;;;;;;;0.38;0.35;;;13.20;99.90;;;;;;5037151;28;20389;-73
2022/02/24 09:31:05;;;;;;;0.00;0.00;;;13.20;99.90;;;;;;5033232;28;20030;-73
2022/02/24 09:33:31;;;;;;;1.27;0.73;;;13.20;99.90;;;;;;5038253;28;20040;-75
2022/02/24 09:35:57;;;;;;;0.10;0.10;;;12.40;99.90;;;;;;5031593;28;20022;-73
2022/02/24 09:38:24;;;;;;;0.05;0.05;;;12.20;99.90;;;;;;5032829;28;20025;-72
2022/02/24 09:40:52;;;;;;;0.75;0.75;;;12.00;99.90;;;;;;5028450;28;20085;-72
2022/02/24 09:43:23;;;;;;;0.30;0.30;;;12.00;99.90;;;;;;5034009;28;20049;-73
2022/02/24 09:45:49;;;;;;;0.38;0.38;;;12.00;99.90;;;;;;5030197;28;20022;-75
2022/02/24 09:48:19;;;;;;;19.80;1.20;;;12.40;99.90;;;;;;5046457;28;20104;-73
2022/02/24 09:50:51;;;;;;;0.00;0.00;;;12.50;99.90;;;;;;5038154;28;20017;-75
2022/02/24 09:53:17;;;;;;;0.52;0.22;;;12.20;99.90;;;;;;5018397;28;20040;-72
2022/02/24 09:55:43;;;;;;;0.30;0.30;;;12.30;99.90;;;;;;5036556;28;20034;-72
2022/02/24 09:58:09;;;;;;;0.00;0.00;;;13.10;99.90;;;;;;5034949;28;20029;-75
2022/02/24 10:00:37;;;;;;;0.00;0.00;;;13.40;99.90;;;;;;5029856;28;20515;-73
2022/02/24 10:03:22;;;;;;;0.20;0.20;;;12.50;99.90;;;;;;5026679;28;20022;-74
2022/02/24 10:05:48;;;;;;;0.17;0.17;;;12.30;99.90;;;;;;5035146;28;20485;-72
2022/02/24 10:08:13;;;;;;;0.30;0.30;;;12.60;99.90;;;;;;5033429;28;20025;-73
2022/02/24 10:10:40;;;;;;;0.20;0.20;;;12.50;99.90;;;;;;5036895;28;20383;-73
2022/02/24 10:13:12;;;;;;;0.32;0.32;;;12.60;99.90;;;;;;5038717;28;20032;-75
2022/02/24 10:15:43;;;;;;;1.40;0.30;;;13.00;99.90;;;;;;5044914;28;20574;-73
2022/02/24 10:18:14;;;;;;;0.20;0.20;;;13.10;99.90;;;;;;5032177;28;20029;-75
2022/02/24 10:20:51;;;;;;;0.45;0.43;;;13.10;99.90;;;;;;5037636;28;20387;-73
2022/02/24 10:23:18;;;;;;;0.93;0.47;;;12.70;99.90;;;;;;5042095;28;20044;-74
2022/02/24 10:25:47;;;;;;;0.00;0.00;;;12.90;99.90;;;;;;5033617;28;20034;-75
2022/02/24 10:28:31;;;;;;;0.00;0.00;;;12.50;99.90;;;;;;5017124;28;20035;-73
2022/02/24 10:30:57;;;;;;;0.00;0.00;;;12.20;99.90;;;;;;5044724;28;20029;-72
2022/02/24 10:33:28;;;;;;;0.30;0.30;;;12.40;99.90;;;;;;5042835;28;20021;-74
2022/02/24 10:35:56;;;;;;;0.00;0.00;;;12.50;99.90;;;;;;5033315;28;20032;-71
2022/02/24 10:38:28;;;;;;;0.95;0.82;;;12.50;99.90;;;;;;5030838;28;20021;-74
2022/02/24 10:40:57;;;;;;;0.03;0.03;;;12.60;99.90;;;;;;5039147;28;20388;-72
2022/02/24 10:43:39;;;;;;;0.70;0.57;;;12.70;99.90;;;;;;5035343;28;20046;-73
2022/02/24 10:46:17;;;;;;;0.43;0.43;;;12.80;99.90;;;;;;5038859;28;20484;-72
2022/02/24 10:48:51;;;;;;;0.00;0.00;;;12.60;99.90;;;;;;5035921;28;20337;-73
2022/02/24 10:51:25;;;;;;;1.23;0.22;;;12.70;99.90;;;;;;5035572;28;20057;-76
2022/02/24 10:54:09;;;;;;;14.80;1.35;;;12.50;99.90;;;;;;5029606;28;20467;-75
2022/02/24 10:56:37;;;;;;;0.00;0.00;;;12.40;99.90;;;;;;5043814;28;20030;-72
2022/02/24 10:59:04;;;;;;;0.08;0.08;;;12.50;99.90;;;;;;5030906;28;20060;-72
2022/02/24 11:01:30;;;;;;;0.00;0.00;;;12.60;99.90;;;;;;5034470;28;20392;-74
2022/02/24 11:04:04;;;;;;;0.80;0.35;;;12.60;99.90;;;;;;5038924;28;20456;-75
2022/02/24 11:06:35;;;;;;;1.25;0.85;;;12.60;99.90;;;;;;5043487;28;20107;-72
2022/02/24 11:09:06;;;;;;;0.00;0.00;;;12.60;99.90;;;;;;5043228;28;20030;-75
2022/02/24 11:11:36;;;;;;;0.38;0.15;;;12.50;99.90;;;;;;5033232;28;20034;-72
2022/02/24 11:14:08;;;;;;;0.40;0.40;;;12.60;99.90;;;;;;5049645;28;20032;-73
2022/02/24 11:16:34;;;;;;;0.10;0.10;;;12.80;99.90;;;;;;5039360;28;20036;-75
2022/02/24 11:19:00;;;;;;;0.45;0.45;;;12.80;99.90;;;;;;5034379;28;20163;-75
2022/02/24 11:21:27;;;;;;;0.95;0.63;;;12.90;99.90;;;;;;5032901;28;20100;-74
2022/02/24 11:23:54;;;;;;;3.08;0.25;;;12.90;99.90;;;;;;5049270;28;20032;-74
2022/02/24 11:26:23;;;;;;;1.55;0.17;;;13.00;99.90;;;;;;5038177;28;20392;-72
2022/02/24 11:29:33;;;;;;;0.10;0.10;;;13.00;99.90;;;;;;5044891;28;20493;-75
2022/02/24 11:32:10;;;;;;;0.00;0.00;;;13.10;99.90;;;;;;5009691;28;20037;-75
2022/02/24 11:34:54;;;;;;;0.20;0.10;;;13.00;99.90;;;;;;5010879;28;20560;-72
2022/02/24 11:37:23;;;;;;;0.38;0.25;;;13.10;99.90;;;;;;5010451;28;20052;-74
2022/02/24 11:39:56;;;;;;;0.00;0.00;;;13.10;99.90;;;;;;5010175;28;20065;-72
2022/02/24 11:42:24;;;;;;;0.00;0.00;;;12.80;99.90;;;;;;5011316;28;20026;-73
2022/02/24 11:44:50;;;;;;;0.55;0.55;;;13.00;99.90;;;;;;5015922;28;20497;-76
2022/02/24 11:47:16;;;;;;;0.15;0.15;;;13.00;99.90;;;;;;4999368;28;20049;-77
2022/02/24 11:49:53;;;;;;;0.00;0.00;;;12.80;99.90;;;;;;5005399;28;20049;-75
2022/02/24 11:52:35;;;;;;;0.15;0.15;;;12.80;99.90;;;;;;4986610;28;20492;-77
2022/02/24 11:55:02;;;;;;;0.00;0.00;;;12.70;99.90;;;;;;5008329;28;20030;-72
2022/02/24 11:57:36;;;;;;;0.80;0.75;;;12.90;99.90;;;;;;4996964;28;20026;-71
2022/02/24 12:00:13;;;;;;;0.13;0.13;;;13.00;99.90;;;;;;5001504;28;20521;-75
2022/02/24 12:02:47;;;;;;;1.08;0.85;;;13.30;99.90;;;;;;4984564;28;20018;-71
2022/02/24 12:05:29;;;;;;;0.13;0.13;;;13.30;99.90;;;;;;4996122;28;20045;-73
2022/02/24 12:08:07;;;;;;;0.00;0.00;;;12.90;99.90;;;;;;5023971;28;20053;-71
2022/02/24 12:10:48;;;;;;;0.00;0.00;;;12.80;99.90;;;;;;5011707;28;20112;-74
2022/02/24 12:13:26;;;;;;;13.98;0.22;;;12.80;99.90;;;;;;5009770;28;20033;-75
2022/02/24 12:16:10;;;;;;;1.85;0.75;;;12.90;99.90;;;;;;5020791;28;20776;-72
2022/02/24 12:18:37;;;;;;;0.20;0.20;;;13.00;99.90;;;;;;5013273;28;20025;-74
2022/02/24 12:21:33;;;;;;;16.25;0.90;;;13.00;99.90;;;;;;5012785;28;20022;-71
2022/02/24 12:24:05;;;;;;;0.43;0.43;;;13.10;99.90;;;;;;5025256;28;20037;-75
2022/02/24 12:26:39;;;;;;;0.43;0.35;;;13.10;99.90;;;;;;5008370;28;20037;-72
2022/02/24 12:29:39;;;;;;;0.47;0.47;;;13.00;99.90;;;;;;5016230;28;20500;-73
2022/02/24 12:32:06;;;;;;;2.63;0.63;;;13.10;99.90;;;;;;5015853;28;20026;-73
2022/02/24 12:34:34;;;;;;;1.20;0.45;;;13.00;99.90;;;;;;5024211;28;20120;-72
2022/02/24 12:37:10;;;;;;;0.00;0.00;;;13.10;99.90;;;;;;5031265;28;20030;-73
2022/02/24 12:39:37;;;;;;;0.10;0.10;;;13.10;99.90;;;;;;5026487;28;20109;-74
2022/02/24 12:42:04;;;;;;;0.68;0.35;;;13.10;99.90;;;;;;5028797;28;20025;-71
2022/02/24 12:44:31;;;;;;;0.20;0.20;;;13.10;99.90;;;;;;5029629;28;20509;-74
2022/02/24 12:46:58;;;;;;;0.00;0.00;;;13.30;99.90;;;;;;5029722;28;20460;-74
2022/02/24 12:49:24;;;;;;;0.00;0.00;;;13.60;99.90;;;;;;5028665;28;20116;-74
2022/02/24 12:51:59;;;;;;;0.00;0.00;;;13.70;99.90;;;;;;5028016;28;20030;-72
2022/02/24 12:54:26;;;;;;;0.00;0.00;;;13.60;99.90;;;;;;5027175;28;20120;-75